sensor_id;sensor_type;location;lat;lon;timestamp;temperature;humidity
3360;DHT22;1693;49.602;11.046;2023-03-13T00:00:57;8.70;99.90
3360;DHT22;1693;49.602;11.046;2023-03-13T00:03:26;8.80;99.90
3360;DHT22;1693;49.602;11.046;2023-03-13T00:06:05;8.80;99.90
3360;DHT22;1693;49.602;11.046;2023-03-13T00:08:34;8.80;99.90
3360;DHT22;1693;49.602;11.046;2023-03-13T00:11:02;8.70;99.90
3360;DHT22;1693;49.602;11.046;2023-03-13T00:13:29;8.70;99.90
3360;DHT22;1693;49.602;11.046;2023-03-13T00:15:59;8.70;99.90
3360;DHT22;1693;49.602;11.046;2023-03-13T00:18:27;8.70;99.90
3360;DHT22;1693;49.602;11.046;2023-03-13T00:20:57;8.60;99.90
3360;DHT22;1693;49.602;11.046;2023-03-13T00:23:26;8.60;99.90
3360;DHT22;1693;49.602;11.046;2023-03-13T00:25:57;8.60;99.90
3360;DHT22;1693;49.602;11.046;2023-03-13T00:28:27;8.50;99.90
3360;DHT22;1693;49.602;11.046;2023-03-13T00:31:00;8.40;99.90
3360;DHT22;1693;49.602;11.046;2023-03-13T00:33:27;8.50;99.90
3360;DHT22;1693;49.602;11.046;2023-03-13T00:35:57;8.60;99.90
3360;DHT22;1693;49.602;11.046;2023-03-13T00:38:25;8.50;99.90
3360;DHT22;1693;49.602;11.046;2023-03-13T00:40:58;8.60;99.90
3360;DHT22;1693;49.602;11.046;2023-03-13T00:43:25;8.50;99.90
3360;DHT22;1693;49.602;11.046;2023-03-13T00:45:52;8.50;99.90
3360;DHT22;1693;49.602;11.046;2023-03-13T00:48:20;8.60;99.90
3360;DHT22;1693;49.602;11.046;2023-03-13T00:50:47;8.60;99.90
3360;DHT22;1693;49.602;11.046;2023-03-13T00:53:14;8.60;99.90
3360;DHT22;1693;49.602;11.046;2023-03-13T00:55:52;8.70;99.90
3360;DHT22;1693;49.602;11.046;2023-03-13T00:58:19;8.60;99.90
3360;DHT22;1693;49.602;11.046;2023-03-13T01:00:46;8.60;99.90
3360;DHT22;1693;49.602;11.046;2023-03-13T01:03:13;8.60;99.90
3360;DHT22;1693;49.602;11.046;2023-03-13T01:05:40;8.50;99.90
3360;DHT22;1693;49.602;11.046;2023-03-13T01:08:07;8.60;99.90
3360;DHT22;1693;49.602;11.046;2023-03-13T01:10:35;8.60;99.90
3360;DHT22;1693;49.602;11.046;2023-03-13T01:13:03;8.60;99.90
3360;DHT22;1693;49.602;11.046;2023-03-13T01:15:34;8.70;99.90
3360;DHT22;1693;49.602;11.046;2023-03-13T01:18:01;8.60;99.90
3360;DHT22;1693;49.602;11.046;2023-03-13T01:20:29;8.60;99.90
3360;DHT22;1693;49.602;11.046;2023-03-13T01:22:56;8.70;99.90
3360;DHT22;1693;49.602;11.046;2023-03-13T01:25:23;8.70;99.90
3360;DHT22;1693;49.602;11.046;2023-03-13T01:27:50;8.60;99.90
3360;DHT22;1693;49.602;11.046;2023-03-13T01:30:18;8.60;99.90
3360;DHT22;1693;49.602;11.046;2023-03-13T01:32:45;8.60;99.90
3360;DHT22;1693;49.602;11.046;2023-03-13T01:35:13;8.60;99.90
3360;DHT22;1693;49.602;11.046;2023-03-13T01:37:40;8.50;99.90
3360;DHT22;1693;49.602;11.046;2023-03-13T01:40:09;8.50;99.90
3360;DHT22;1693;49.602;11.046;2023-03-13T01:42:50;8.50;99.90
3360;DHT22;1693;49.602;11.046;2023-03-13T01:48:26;8.60;99.90
3360;DHT22;1693;49.602;11.046;2023-03-13T01:50:56;8.60;99.90
3360;DHT22;1693;49.602;11.046;2023-03-13T01:53:24;8.50;99.90
3360;DHT22;1693;49.602;11.046;2023-03-13T01:55:53;8.60;99.90
3360;DHT22;1693;49.602;11.046;2023-03-13T01:58:21;8.60;99.90
3360;DHT22;1693;49.602;11.046;2023-03-13T02:00:49;8.60;99.90
3360;DHT22;1693;49.602;11.046;2023-03-13T02:03:19;8.60;99.90
3360;DHT22;1693;49.602;11.046;2023-03-13T02:05:49;8.60;99.90
3360;DHT22;1693;49.602;11.046;2023-03-13T02:08:19;8.50;99.90
3360;DHT22;1693;49.602;11.046;2023-03-13T02:10:50;8.40;99.90
3360;DHT22;1693;49.602;11.046;2023-03-13T02:13:19;8.60;99.90
3360;DHT22;1693;49.602;11.046;2023-03-13T02:15:46;8.50;99.90
3360;DHT22;1693;49.602;11.046;2023-03-13T02:18:16;8.50;99.90
3360;DHT22;1693;49.602;11.046;2023-03-13T02:20:43;8.50;99.90
3360;DHT22;1693;49.602;11.046;2023-03-13T02:23:18;8.60;99.90
3360;DHT22;1693;49.602;11.046;2023-03-13T02:25:50;8.60;99.90
3360;DHT22;1693;49.602;11.046;2023-03-13T02:28:20;8.60;99.90
3360;DHT22;1693;49.602;11.046;2023-03-13T02:30:51;8.70;99.90
3360;DHT22;1693;49.602;11.046;2023-03-13T02:33:20;8.60;99.90
3360;DHT22;1693;49.602;11.046;2023-03-13T02:35:48;8.60;99.90
3360;DHT22;1693;49.602;11.046;2023-03-13T02:38:18;8.60;99.90
3360;DHT22;1693;49.602;11.046;2023-03-13T02:40:49;8.60;99.90
3360;DHT22;1693;49.602;11.046;2023-03-13T02:43:20;8.60;99.90
3360;DHT22;1693;49.602;11.046;2023-03-13T02:46:01;8.60;99.90
3360;DHT22;1693;49.602;11.046;2023-03-13T02:48:31;8.60;99.90
3360;DHT22;1693;49.602;11.046;2023-03-13T02:50:59;8.60;99.90
3360;DHT22;1693;49.602;11.046;2023-03-13T02:53:27;8.60;99.90
3360;DHT22;1693;49.602;11.046;2023-03-13T02:55:56;8.60;99.90
3360;DHT22;1693;49.602;11.046;2023-03-13T02:58:23;8.60;99.90
3360;DHT22;1693;49.602;11.046;2023-03-13T03:00:53;8.70;99.90
3360;DHT22;1693;49.602;11.046;2023-03-13T03:03:20;8.70;99.90
3360;DHT22;1693;49.602;11.046;2023-03-13T03:05:47;8.70;99.90
3360;DHT22;1693;49.602;11.046;2023-03-13T03:08:14;8.70;99.90
3360;DHT22;1693;49.602;11.046;2023-03-13T03:10:41;8.80;99.90
3360;DHT22;1693;49.602;11.046;2023-03-13T03:13:10;8.80;99.90
3360;DHT22;1693;49.602;11.046;2023-03-13T03:15:37;8.80;99.90
3360;DHT22;1693;49.602;11.046;2023-03-13T03:18:04;8.80;99.90
3360;DHT22;1693;49.602;11.046;2023-03-13T03:20:31;8.80;99.90
3360;DHT22;1693;49.602;11.046;2023-03-13T03:22:58;8.80;99.90
3360;DHT22;1693;49.602;11.046;2023-03-13T03:25:25;8.80;99.90
3360;DHT22;1693;49.602;11.046;2023-03-13T03:27:52;8.80;99.90
3360;DHT22;1693;49.602;11.046;2023-03-13T03:30:21;8.90;99.90
3360;DHT22;1693;49.602;11.046;2023-03-13T03:32:48;8.90;99.90
3360;DHT22;1693;49.602;11.046;2023-03-13T03:35:15;8.80;99.90
3360;DHT22;1693;49.602;11.046;2023-03-13T03:37:42;8.90;99.90
3360;DHT22;1693;49.602;11.046;2023-03-13T03:40:11;8.80;99.90
3360;DHT22;1693;49.602;11.046;2023-03-13T03:42:38;8.80;99.90
3360;DHT22;1693;49.602;11.046;2023-03-13T03:45:07;8.80;99.90
3360;DHT22;1693;49.602;11.046;2023-03-13T03:47:35;8.70;99.90
3360;DHT22;1693;49.602;11.046;2023-03-13T03:50:03;8.80;99.90
3360;DHT22;1693;49.602;11.046;2023-03-13T03:52:32;8.80;99.90
3360;DHT22;1693;49.602;11.046;2023-03-13T03:54:59;8.90;99.90
3360;DHT22;1693;49.602;11.046;2023-03-13T03:57:26;8.90;99.90
3360;DHT22;1693;49.602;11.046;2023-03-13T03:59:54;8.90;99.90
3360;DHT22;1693;49.602;11.046;2023-03-13T04:02:20;8.90;99.90
3360;DHT22;1693;49.602;11.046;2023-03-13T04:04:49;9.00;99.90
3360;DHT22;1693;49.602;11.046;2023-03-13T04:07:16;9.00;99.90
3360;DHT22;1693;49.602;11.046;2023-03-13T04:09:43;8.80;99.90
3360;DHT22;1693;49.602;11.046;2023-03-13T04:12:10;8.80;99.90
3360;DHT22;1693;49.602;11.046;2023-03-13T04:14:37;8.80;99.90
3360;DHT22;1693;49.602;11.046;2023-03-13T04:17:04;8.90;99.90
3360;DHT22;1693;49.602;11.046;2023-03-13T04:19:31;9.00;99.90
3360;DHT22;1693;49.602;11.046;2023-03-13T04:22:00;8.90;99.90
3360;DHT22;1693;49.602;11.046;2023-03-13T04:24:27;8.80;99.90
3360;DHT22;1693;49.602;11.046;2023-03-13T04:26:54;8.80;99.90
3360;DHT22;1693;49.602;11.046;2023-03-13T04:29:21;8.80;99.90
3360;DHT22;1693;49.602;11.046;2023-03-13T04:31:48;8.80;99.90
3360;DHT22;1693;49.602;11.046;2023-03-13T04:34:15;8.70;99.90
3360;DHT22;1693;49.602;11.046;2023-03-13T04:36:42;8.80;99.90
3360;DHT22;1693;49.602;11.046;2023-03-13T04:39:11;8.90;99.90
3360;DHT22;1693;49.602;11.046;2023-03-13T04:41:38;8.90;99.90
3360;DHT22;1693;49.602;11.046;2023-03-13T04:44:05;8.90;99.90
3360;DHT22;1693;49.602;11.046;2023-03-13T04:46:32;8.90;99.90
3360;DHT22;1693;49.602;11.046;2023-03-13T04:48:59;8.90;99.90
3360;DHT22;1693;49.602;11.046;2023-03-13T04:51:27;8.90;99.90
3360;DHT22;1693;49.602;11.046;2023-03-13T04:53:54;9.00;99.90
3360;DHT22;1693;49.602;11.046;2023-03-13T04:56:25;8.90;99.90
3360;DHT22;1693;49.602;11.046;2023-03-13T04:58:52;8.90;99.90
3360;DHT22;1693;49.602;11.046;2023-03-13T05:01:19;8.90;99.90
3360;DHT22;1693;49.602;11.046;2023-03-13T05:03:46;8.90;99.90
3360;DHT22;1693;49.602;11.046;2023-03-13T05:06:14;9.00;99.90
3360;DHT22;1693;49.602;11.046;2023-03-13T05:08:41;9.10;99.90
3360;DHT22;1693;49.602;11.046;2023-03-13T05:11:08;9.10;99.90
3360;DHT22;1693;49.602;11.046;2023-03-13T05:13:37;9.00;99.90
3360;DHT22;1693;49.602;11.046;2023-03-13T05:16:04;9.10;99.90
3360;DHT22;1693;49.602;11.046;2023-03-13T05:18:32;9.10;99.90
3360;DHT22;1693;49.602;11.046;2023-03-13T05:20:59;9.00;99.90
3360;DHT22;1693;49.602;11.046;2023-03-13T05:23:26;9.00;99.90
3360;DHT22;1693;49.602;11.046;2023-03-13T05:25:53;9.00;99.90
3360;DHT22;1693;49.602;11.046;2023-03-13T05:28:20;9.00;99.90
3360;DHT22;1693;49.602;11.046;2023-03-13T05:30:48;8.90;99.90
3360;DHT22;1693;49.602;11.046;2023-03-13T05:33:15;8.90;99.90
3360;DHT22;1693;49.602;11.046;2023-03-13T05:35:43;8.80;99.90
3360;DHT22;1693;49.602;11.046;2023-03-13T05:38:11;8.90;99.90
3360;DHT22;1693;49.602;11.046;2023-03-13T05:40:39;8.90;99.90
3360;DHT22;1693;49.602;11.046;2023-03-13T05:43:06;8.90;99.90
3360;DHT22;1693;49.602;11.046;2023-03-13T05:45:33;8.90;99.90
3360;DHT22;1693;49.602;11.046;2023-03-13T05:48:02;8.80;99.90
3360;DHT22;1693;49.602;11.046;2023-03-13T05:50:29;8.70;99.90
3360;DHT22;1693;49.602;11.046;2023-03-13T05:52:56;8.80;99.90
3360;DHT22;1693;49.602;11.046;2023-03-13T05:55:23;8.70;99.90
3360;DHT22;1693;49.602;11.046;2023-03-13T05:57:50;8.70;99.90
3360;DHT22;1693;49.602;11.046;2023-03-13T06:00:18;8.60;99.90
3360;DHT22;1693;49.602;11.046;2023-03-13T06:02:46;8.60;99.90
3360;DHT22;1693;49.602;11.046;2023-03-13T06:05:14;8.60;99.90
3360;DHT22;1693;49.602;11.046;2023-03-13T06:07:41;8.60;99.90
3360;DHT22;1693;49.602;11.046;2023-03-13T06:10:09;8.60;99.90
3360;DHT22;1693;49.602;11.046;2023-03-13T06:12:36;8.50;99.90
3360;DHT22;1693;49.602;11.046;2023-03-13T06:15:04;8.50;99.90
3360;DHT22;1693;49.602;11.046;2023-03-13T06:17:34;8.50;99.90
3360;DHT22;1693;49.602;11.046;2023-03-13T06:20:01;8.50;99.90
3360;DHT22;1693;49.602;11.046;2023-03-13T06:22:32;8.50;99.90
3360;DHT22;1693;49.602;11.046;2023-03-13T06:24:59;8.50;99.90
3360;DHT22;1693;49.602;11.046;2023-03-13T06:27:26;8.50;99.90
3360;DHT22;1693;49.602;11.046;2023-03-13T06:29:53;8.50;99.90
3360;DHT22;1693;49.602;11.046;2023-03-13T06:32:20;8.50;99.90
3360;DHT22;1693;49.602;11.046;2023-03-13T06:34:47;8.60;99.90
3360;DHT22;1693;49.602;11.046;2023-03-13T06:37:14;8.70;99.90
3360;DHT22;1693;49.602;11.046;2023-03-13T06:39:43;8.70;99.90
3360;DHT22;1693;49.602;11.046;2023-03-13T06:42:10;8.70;99.90
3360;DHT22;1693;49.602;11.046;2023-03-13T06:44:36;8.70;99.90
3360;DHT22;1693;49.602;11.046;2023-03-13T06:47:04;8.70;99.90
3360;DHT22;1693;49.602;11.046;2023-03-13T06:49:31;8.70;99.90
3360;DHT22;1693;49.602;11.046;2023-03-13T06:51:59;8.80;99.90
3360;DHT22;1693;49.602;11.046;2023-03-13T06:54:26;8.80;99.90
3360;DHT22;1693;49.602;11.046;2023-03-13T06:56:54;8.80;99.90
3360;DHT22;1693;49.602;11.046;2023-03-13T06:59:21;8.90;99.90
3360;DHT22;1693;49.602;11.046;2023-03-13T07:01:48;9.00;99.90
3360;DHT22;1693;49.602;11.046;2023-03-13T07:04:15;9.00;99.90
3360;DHT22;1693;49.602;11.046;2023-03-13T07:06:42;9.20;99.90
3360;DHT22;1693;49.602;11.046;2023-03-13T07:09:09;9.10;99.90
3360;DHT22;1693;49.602;11.046;2023-03-13T07:11:36;9.10;99.90
3360;DHT22;1693;49.602;11.046;2023-03-13T07:14:05;9.10;99.90
3360;DHT22;1693;49.602;11.046;2023-03-13T07:16:32;9.20;99.90
3360;DHT22;1693;49.602;11.046;2023-03-13T07:18:59;9.20;99.90
3360;DHT22;1693;49.602;11.046;2023-03-13T07:21:26;9.20;99.90
3360;DHT22;1693;49.602;11.046;2023-03-13T07:23:53;9.40;99.90
3360;DHT22;1693;49.602;11.046;2023-03-13T07:26:20;9.50;99.90
3360;DHT22;1693;49.602;11.046;2023-03-13T07:31:17;9.80;99.90
3360;DHT22;1693;49.602;11.046;2023-03-13T07:33:45;10.00;99.90
3360;DHT22;1693;49.602;11.046;2023-03-13T07:36:13;10.10;99.90
3360;DHT22;1693;49.602;11.046;2023-03-13T07:38:41;10.30;99.90
3360;DHT22;1693;49.602;11.046;2023-03-13T07:41:10;10.40;99.90
3360;DHT22;1693;49.602;11.046;2023-03-13T07:43:37;10.50;99.90
3360;DHT22;1693;49.602;11.046;2023-03-13T07:46:06;10.40;99.90
3360;DHT22;1693;49.602;11.046;2023-03-13T07:48:36;10.40;99.90
3360;DHT22;1693;49.602;11.046;2023-03-13T07:51:05;10.50;99.90
3360;DHT22;1693;49.602;11.046;2023-03-13T07:53:34;10.60;99.90
3360;DHT22;1693;49.602;11.046;2023-03-13T07:56:02;10.60;99.90
3360;DHT22;1693;49.602;11.046;2023-03-13T07:58:32;10.70;99.90
3360;DHT22;1693;49.602;11.046;2023-03-13T08:00:59;10.80;99.90
3360;DHT22;1693;49.602;11.046;2023-03-13T08:03:27;10.80;99.90
3360;DHT22;1693;49.602;11.046;2023-03-13T08:06:00;10.80;99.90
3360;DHT22;1693;49.602;11.046;2023-03-13T08:08:28;10.80;99.90
3360;DHT22;1693;49.602;11.046;2023-03-13T08:10:59;10.80;99.90
3360;DHT22;1693;49.602;11.046;2023-03-13T08:13:26;10.90;99.90
3360;DHT22;1693;49.602;11.046;2023-03-13T08:16:04;10.90;99.90
3360;DHT22;1693;49.602;11.046;2023-03-13T08:18:31;10.90;99.90
3360;DHT22;1693;49.602;11.046;2023-03-13T08:21:06;11.00;99.90
3360;DHT22;1693;49.602;11.046;2023-03-13T08:23:34;10.90;99.90
3360;DHT22;1693;49.602;11.046;2023-03-13T08:26:02;11.00;99.90
3360;DHT22;1693;49.602;11.046;2023-03-13T08:28:30;11.10;99.90
3360;DHT22;1693;49.602;11.046;2023-03-13T08:30:58;11.20;99.90
3360;DHT22;1693;49.602;11.046;2023-03-13T08:33:34;11.10;99.90
3360;DHT22;1693;49.602;11.046;2023-03-13T08:36:11;11.10;99.90
3360;DHT22;1693;49.602;11.046;2023-03-13T08:38:46;11.20;99.90
3360;DHT22;1693;49.602;11.046;2023-03-13T08:41:15;11.30;99.90
3360;DHT22;1693;49.602;11.046;2023-03-13T08:43:42;11.40;99.90
3360;DHT22;1693;49.602;11.046;2023-03-13T08:46:10;11.50;99.90
3360;DHT22;1693;49.602;11.046;2023-03-13T08:48:37;11.60;99.90
3360;DHT22;1693;49.602;11.046;2023-03-13T08:51:06;11.50;99.90
3360;DHT22;1693;49.602;11.046;2023-03-13T08:53:36;11.60;99.90
3360;DHT22;1693;49.602;11.046;2023-03-13T08:56:05;12.00;99.90
3360;DHT22;1693;49.602;11.046;2023-03-13T08:58:32;12.20;99.90
3360;DHT22;1693;49.602;11.046;2023-03-13T09:01:00;12.20;99.90
3360;DHT22;1693;49.602;11.046;2023-03-13T09:03:28;12.40;99.90
3360;DHT22;1693;49.602;11.046;2023-03-13T09:05:56;12.40;99.90
3360;DHT22;1693;49.602;11.046;2023-03-13T09:08:23;12.30;99.90
3360;DHT22;1693;49.602;11.046;2023-03-13T09:10:55;12.30;99.90
3360;DHT22;1693;49.602;11.046;2023-03-13T09:13:23;12.40;99.90
3360;DHT22;1693;49.602;11.046;2023-03-13T09:15:53;12.50;99.90
3360;DHT22;1693;49.602;11.046;2023-03-13T09:18:21;12.70;99.90
3360;DHT22;1693;49.602;11.046;2023-03-13T09:20:48;13.00;99.90
3360;DHT22;1693;49.602;11.046;2023-03-13T09:23:15;13.30;99.90
3360;DHT22;1693;49.602;11.046;2023-03-13T09:28:11;13.70;99.90
3360;DHT22;1693;49.602;11.046;2023-03-13T09:30:38;13.80;99.90
3360;DHT22;1693;49.602;11.046;2023-03-13T09:33:05;13.80;99.90
3360;DHT22;1693;49.602;11.046;2023-03-13T09:35:32;13.80;99.90
3360;DHT22;1693;49.602;11.046;2023-03-13T09:37:59;14.00;99.90
3360;DHT22;1693;49.602;11.046;2023-03-13T09:40:27;14.20;99.90
3360;DHT22;1693;49.602;11.046;2023-03-13T09:42:57;14.20;99.90
3360;DHT22;1693;49.602;11.046;2023-03-13T09:45:30;14.40;99.90
3360;DHT22;1693;49.602;11.046;2023-03-13T09:48:01;14.40;99.90
3360;DHT22;1693;49.602;11.046;2023-03-13T09:50:33;14.50;99.90
3360;DHT22;1693;49.602;11.046;2023-03-13T09:53:05;14.40;99.90
3360;DHT22;1693;49.602;11.046;2023-03-13T09:55:37;14.40;99.90
3360;DHT22;1693;49.602;11.046;2023-03-13T09:58:12;14.40;99.90
3360;DHT22;1693;49.602;11.046;2023-03-13T10:00:45;14.40;99.90
3360;DHT22;1693;49.602;11.046;2023-03-13T10:03:17;14.40;99.90
3360;DHT22;1693;49.602;11.046;2023-03-13T10:05:48;14.30;99.90
3360;DHT22;1693;49.602;11.046;2023-03-13T10:08:18;14.30;99.90
3360;DHT22;1693;49.602;11.046;2023-03-13T10:10:50;14.30;99.90
3360;DHT22;1693;49.602;11.046;2023-03-13T10:13:33;14.30;99.90
3360;DHT22;1693;49.602;11.046;2023-03-13T10:16:06;14.30;99.90
3360;DHT22;1693;49.602;11.046;2023-03-13T10:18:35;14.30;99.90
3360;DHT22;1693;49.602;11.046;2023-03-13T10:21:11;14.20;99.90
3360;DHT22;1693;49.602;11.046;2023-03-13T10:23:43;14.20;99.90
3360;DHT22;1693;49.602;11.046;2023-03-13T10:26:14;14.10;99.90
3360;DHT22;1693;49.602;11.046;2023-03-13T10:28:43;14.10;99.90
3360;DHT22;1693;49.602;11.046;2023-03-13T10:31:16;14.10;99.90
3360;DHT22;1693;49.602;11.046;2023-03-13T10:33:44;14.10;99.90
3360;DHT22;1693;49.602;11.046;2023-03-13T10:36:13;14.10;99.90
3360;DHT22;1693;49.602;11.046;2023-03-13T10:38:49;14.20;99.90
3360;DHT22;1693;49.602;11.046;2023-03-13T10:41:24;14.10;99.90
3360;DHT22;1693;49.602;11.046;2023-03-13T10:43:53;14.20;99.90
3360;DHT22;1693;49.602;11.046;2023-03-13T10:46:28;14.10;99.90
3360;DHT22;1693;49.602;11.046;2023-03-13T10:48:56;14.20;99.90
3360;DHT22;1693;49.602;11.046;2023-03-13T10:51:24;14.20;99.90
3360;DHT22;1693;49.602;11.046;2023-03-13T10:53:56;14.30;99.90
3360;DHT22;1693;49.602;11.046;2023-03-13T10:56:26;14.20;99.90
3360;DHT22;1693;49.602;11.046;2023-03-13T10:58:55;14.20;99.90
3360;DHT22;1693;49.602;11.046;2023-03-13T11:01:23;14.20;99.90
3360;DHT22;1693;49.602;11.046;2023-03-13T11:03:54;14.20;99.90
3360;DHT22;1693;49.602;11.046;2023-03-13T11:06:27;14.40;99.90
3360;DHT22;1693;49.602;11.046;2023-03-13T11:09:09;14.50;99.90
3360;DHT22;1693;49.602;11.046;2023-03-13T11:11:46;14.60;99.90
3360;DHT22;1693;49.602;11.046;2023-03-13T11:14:15;14.70;99.90
3360;DHT22;1693;49.602;11.046;2023-03-13T11:16:46;14.90;99.90
3360;DHT22;1693;49.602;11.046;2023-03-13T11:19:42;15.30;99.90
3360;DHT22;1693;49.602;11.046;2023-03-13T11:22:28;15.40;99.90
3360;DHT22;1693;49.602;11.046;2023-03-13T11:25:02;15.40;99.90
3360;DHT22;1693;49.602;11.046;2023-03-13T11:27:35;15.50;99.90
3360;DHT22;1693;49.602;11.046;2023-03-13T11:30:17;15.60;99.90
3360;DHT22;1693;49.602;11.046;2023-03-13T11:32:50;15.60;99.90
3360;DHT22;1693;49.602;11.046;2023-03-13T11:35:34;15.60;99.90
3360;DHT22;1693;49.602;11.046;2023-03-13T11:38:06;15.50;99.90
3360;DHT22;1693;49.602;11.046;2023-03-13T11:40:38;15.20;99.90
3360;DHT22;1693;49.602;11.046;2023-03-13T11:43:29;15.20;99.90
3360;DHT22;1693;49.602;11.046;2023-03-13T11:46:17;15.10;99.90
3360;DHT22;1693;49.602;11.046;2023-03-13T11:49:06;15.00;99.90
3360;DHT22;1693;49.602;11.046;2023-03-13T11:51:46;15.00;99.90
3360;DHT22;1693;49.602;11.046;2023-03-13T11:54:33;14.90;99.90
3360;DHT22;1693;49.602;11.046;2023-03-13T11:57:06;14.90;99.90
3360;DHT22;1693;49.602;11.046;2023-03-13T11:59:43;14.80;99.90
3360;DHT22;1693;49.602;11.046;2023-03-13T12:02:19;14.90;99.90
3360;DHT22;1693;49.602;11.046;2023-03-13T12:04:51;14.90;99.90
3360;DHT22;1693;49.602;11.046;2023-03-13T12:07:25;15.00;99.90
3360;DHT22;1693;49.602;11.046;2023-03-13T12:09:57;15.20;99.90
3360;DHT22;1693;49.602;11.046;2023-03-13T12:12:36;15.40;99.90
3360;DHT22;1693;49.602;11.046;2023-03-13T12:17:36;16.30;99.90
3360;DHT22;1693;49.602;11.046;2023-03-13T12:20:07;17.20;99.90
3360;DHT22;1693;49.602;11.046;2023-03-13T12:22:44;17.20;99.90
3360;DHT22;1693;49.602;11.046;2023-03-13T12:25:18;17.70;99.90
3360;DHT22;1693;49.602;11.046;2023-03-13T12:27:51;17.70;99.90
3360;DHT22;1693;49.602;11.046;2023-03-13T12:30:27;17.90;99.90
3360;DHT22;1693;49.602;11.046;2023-03-13T12:33:03;18.00;99.90
3360;DHT22;1693;49.602;11.046;2023-03-13T12:35:31;17.50;99.90
3360;DHT22;1693;49.602;11.046;2023-03-13T12:38:03;17.20;99.90
3360;DHT22;1693;49.602;11.046;2023-03-13T12:40:36;17.00;99.90
3360;DHT22;1693;49.602;11.046;2023-03-13T14:38:52;19.60;99.90
3360;DHT22;1693;49.602;11.046;2023-03-13T14:41:30;19.30;99.90
3360;DHT22;1693;49.602;11.046;2023-03-13T14:44:03;19.20;99.90
3360;DHT22;1693;49.602;11.046;2023-03-13T14:46:32;19.10;99.90
3360;DHT22;1693;49.602;11.046;2023-03-13T14:49:15;19.00;99.90
3360;DHT22;1693;49.602;11.046;2023-03-13T14:51:45;18.90;99.90
3360;DHT22;1693;49.602;11.046;2023-03-13T14:54:25;18.90;99.90
3360;DHT22;1693;49.602;11.046;2023-03-13T14:57:04;18.70;99.90
3360;DHT22;1693;49.602;11.046;2023-03-13T14:59:31;18.70;99.90
3360;DHT22;1693;49.602;11.046;2023-03-13T15:02:00;19.30;99.90
3360;DHT22;1693;49.602;11.046;2023-03-13T15:04:55;19.80;99.90
3360;DHT22;1693;49.602;11.046;2023-03-13T15:07:26;20.60;99.90
3360;DHT22;1693;49.602;11.046;2023-03-13T15:09:55;22.30;99.90
3360;DHT22;1693;49.602;11.046;2023-03-13T15:14:52;24.60;99.00
3360;DHT22;1693;49.602;11.046;2023-03-13T15:17:21;25.00;97.50
3360;DHT22;1693;49.602;11.046;2023-03-13T15:19:50;25.00;97.30
3360;DHT22;1693;49.602;11.046;2023-03-13T15:22:20;25.80;96.80
3360;DHT22;1693;49.602;11.046;2023-03-13T15:24:52;26.30;94.70
3360;DHT22;1693;49.602;11.046;2023-03-13T15:27:23;26.50;93.40
3360;DHT22;1693;49.602;11.046;2023-03-13T15:29:51;26.00;92.60
3360;DHT22;1693;49.602;11.046;2023-03-13T15:32:24;25.90;93.00
3360;DHT22;1693;49.602;11.046;2023-03-13T15:34:52;26.50;92.40
3360;DHT22;1693;49.602;11.046;2023-03-13T15:37:23;26.60;91.40
3360;DHT22;1693;49.602;11.046;2023-03-13T15:39:50;26.10;91.30
3360;DHT22;1693;49.602;11.046;2023-03-13T15:42:17;26.40;91.30
3360;DHT22;1693;49.602;11.046;2023-03-13T15:44:46;26.70;90.40
3360;DHT22;1693;49.602;11.046;2023-03-13T15:47:17;26.30;90.40
3360;DHT22;1693;49.602;11.046;2023-03-13T15:49:44;26.40;90.30
3360;DHT22;1693;49.602;11.046;2023-03-13T15:52:14;26.70;90.60
3360;DHT22;1693;49.602;11.046;2023-03-13T15:54:43;26.90;88.50
3360;DHT22;1693;49.602;11.046;2023-03-13T15:57:11;27.00;88.20
3360;DHT22;1693;49.602;11.046;2023-03-13T15:59:40;26.90;87.30
3360;DHT22;1693;49.602;11.046;2023-03-13T16:02:13;26.80;86.60
3360;DHT22;1693;49.602;11.046;2023-03-13T16:04:41;26.30;86.80
3360;DHT22;1693;49.602;11.046;2023-03-13T16:07:09;26.80;87.00
3360;DHT22;1693;49.602;11.046;2023-03-13T16:09:37;26.10;86.30
3360;DHT22;1693;49.602;11.046;2023-03-13T16:12:05;25.50;87.60
3360;DHT22;1693;49.602;11.046;2023-03-13T16:14:32;24.80;88.60
3360;DHT22;1693;49.602;11.046;2023-03-13T16:17:01;23.30;90.40
3360;DHT22;1693;49.602;11.046;2023-03-13T16:19:29;22.20;92.10
3360;DHT22;1693;49.602;11.046;2023-03-13T16:21:56;21.20;93.70
3360;DHT22;1693;49.602;11.046;2023-03-13T16:24:23;20.60;95.10
3360;DHT22;1693;49.602;11.046;2023-03-13T16:26:51;20.00;96.40
3360;DHT22;1693;49.602;11.046;2023-03-13T16:29:18;19.40;98.10
3360;DHT22;1693;49.602;11.046;2023-03-13T16:31:45;19.10;99.20
3360;DHT22;1693;49.602;11.046;2023-03-13T16:34:12;19.10;99.90
3360;DHT22;1693;49.602;11.046;2023-03-13T16:36:41;19.00;99.90
3360;DHT22;1693;49.602;11.046;2023-03-13T16:39:13;18.80;99.90
3360;DHT22;1693;49.602;11.046;2023-03-13T16:41:41;18.70;99.90
3360;DHT22;1693;49.602;11.046;2023-03-13T16:44:08;18.60;99.90
3360;DHT22;1693;49.602;11.046;2023-03-13T16:46:37;18.50;99.90
3360;DHT22;1693;49.602;11.046;2023-03-13T16:49:04;18.30;99.90
3360;DHT22;1693;49.602;11.046;2023-03-13T16:51:31;18.10;99.90
3360;DHT22;1693;49.602;11.046;2023-03-13T16:54:00;18.00;99.90
3360;DHT22;1693;49.602;11.046;2023-03-13T16:56:30;17.90;99.90
3360;DHT22;1693;49.602;11.046;2023-03-13T16:58:59;17.70;99.90
3360;DHT22;1693;49.602;11.046;2023-03-13T17:01:27;17.60;99.90
3360;DHT22;1693;49.602;11.046;2023-03-13T17:03:55;17.60;99.90
3360;DHT22;1693;49.602;11.046;2023-03-13T17:06:24;17.50;99.90
3360;DHT22;1693;49.602;11.046;2023-03-13T17:08:51;17.40;99.90
3360;DHT22;1693;49.602;11.046;2023-03-13T17:11:21;17.30;99.90
3360;DHT22;1693;49.602;11.046;2023-03-13T17:13:50;17.20;99.90
3360;DHT22;1693;49.602;11.046;2023-03-13T17:16:20;17.00;99.90
3360;DHT22;1693;49.602;11.046;2023-03-13T17:18:49;17.00;99.90
3360;DHT22;1693;49.602;11.046;2023-03-13T17:23:46;16.70;99.90
3360;DHT22;1693;49.602;11.046;2023-03-13T17:26:15;16.60;99.90
3360;DHT22;1693;49.602;11.046;2023-03-13T17:28:45;16.50;99.90
3360;DHT22;1693;49.602;11.046;2023-03-13T17:31:12;16.30;99.90
3360;DHT22;1693;49.602;11.046;2023-03-13T17:33:39;16.00;99.90
3360;DHT22;1693;49.602;11.046;2023-03-13T17:36:15;15.90;99.90
3360;DHT22;1693;49.602;11.046;2023-03-13T17:38:43;15.90;99.90
3360;DHT22;1693;49.602;11.046;2023-03-13T17:41:11;15.80;99.90
3360;DHT22;1693;49.602;11.046;2023-03-13T17:43:39;15.70;99.90
3360;DHT22;1693;49.602;11.046;2023-03-13T17:46:17;15.70;99.90
3360;DHT22;1693;49.602;11.046;2023-03-13T17:48:45;15.60;99.90
3360;DHT22;1693;49.602;11.046;2023-03-13T17:51:14;15.40;99.90
3360;DHT22;1693;49.602;11.046;2023-03-13T17:53:42;15.20;99.90
3360;DHT22;1693;49.602;11.046;2023-03-13T17:56:15;15.10;99.90
3360;DHT22;1693;49.602;11.046;2023-03-13T17:58:43;15.10;99.90
3360;DHT22;1693;49.602;11.046;2023-03-13T18:01:12;15.00;99.90
3360;DHT22;1693;49.602;11.046;2023-03-13T18:03:41;14.80;99.90
3360;DHT22;1693;49.602;11.046;2023-03-13T18:06:20;14.70;99.90
3360;DHT22;1693;49.602;11.046;2023-03-13T18:08:49;14.70;99.90
3360;DHT22;1693;49.602;11.046;2023-03-13T18:11:17;14.80;99.90
3360;DHT22;1693;49.602;11.046;2023-03-13T18:13:45;14.70;99.90
3360;DHT22;1693;49.602;11.046;2023-03-13T18:16:25;14.70;99.90
3360;DHT22;1693;49.602;11.046;2023-03-13T18:18:54;14.60;99.90